sensor_id;sensor_type;location;lat;lon;timestamp;pressure;altitude;pressure_sealevel;temperature;humidity
77725;BME280;66892;53.236;6.550;2023-02-18T00:01:19;102118.44;;;6.89;81.09
77725;BME280;66892;53.236;6.550;2023-02-18T00:03:47;102125.69;;;6.96;80.99
77725;BME280;66892;53.236;6.550;2023-02-18T00:06:15;102121.34;;;6.98;80.69
77725;BME280;66892;53.236;6.550;2023-02-18T00:08:43;102127.34;;;6.94;80.96
77725;BME280;66892;53.236;6.550;2023-02-18T00:11:09;102115.91;;;6.92;80.94
77725;BME280;66892;53.236;6.550;2023-02-18T00:13:36;102116.72;;;6.91;81.16
77725;BME280;66892;53.236;6.550;2023-02-18T00:16:03;102113.44;;;6.97;80.62
77725;BME280;66892;53.236;6.550;2023-02-18T00:18:29;102106.59;;;7.03;80.55
77725;BME280;66892;53.236;6.550;2023-02-18T00:20:57;102095.22;;;7.04;80.22
77725;BME280;66892;53.236;6.550;2023-02-18T00:23:23;102098.47;;;6.96;80.63
77725;BME280;66892;53.236;6.550;2023-02-18T00:25:58;102078.34;;;6.96;80.68
77725;BME280;66892;53.236;6.550;2023-02-18T00:28:24;102084.09;;;6.84;81.31
77725;BME280;66892;53.236;6.550;2023-02-18T00:30:50;102080.69;;;6.87;81.02
77725;BME280;66892;53.236;6.550;2023-02-18T00:33:16;102076.16;;;6.83;81.37
77725;BME280;66892;53.236;6.550;2023-02-18T00:35:42;102066.22;;;6.73;81.56
77725;BME280;66892;53.236;6.550;2023-02-18T00:38:09;102069.63;;;6.70;82.09
77725;BME280;66892;53.236;6.550;2023-02-18T00:40:36;102067.78;;;6.68;82.18
77725;BME280;66892;53.236;6.550;2023-02-18T00:43:02;102056.25;;;6.63;82.66
77725;BME280;66892;53.236;6.550;2023-02-18T00:45:28;102048.41;;;6.64;82.79
77725;BME280;66892;53.236;6.550;2023-02-18T00:47:54;102049.09;;;6.59;82.86
77725;BME280;66892;53.236;6.550;2023-02-18T00:50:20;102048.91;;;6.53;83.28
77725;BME280;66892;53.236;6.550;2023-02-18T00:52:46;102045.97;;;6.44;83.73
77725;BME280;66892;53.236;6.550;2023-02-18T00:55:14;102044.59;;;6.28;84.25
77725;BME280;66892;53.236;6.550;2023-02-18T00:57:40;102035.06;;;6.31;84.22
77725;BME280;66892;53.236;6.550;2023-02-18T01:00:07;102030.03;;;6.38;84.26
77725;BME280;66892;53.236;6.550;2023-02-18T01:02:34;102023.50;;;6.26;84.17
77725;BME280;66892;53.236;6.550;2023-02-18T01:05:00;102027.09;;;6.28;84.26
77725;BME280;66892;53.236;6.550;2023-02-18T01:07:26;102028.03;;;6.30;84.04
77725;BME280;66892;53.236;6.550;2023-02-18T01:09:52;102027.91;;;6.26;84.28
77725;BME280;66892;53.236;6.550;2023-02-18T01:12:20;102021.59;;;6.21;84.96
77725;BME280;66892;53.236;6.550;2023-02-18T01:14:46;102030.16;;;6.15;85.02
77725;BME280;66892;53.236;6.550;2023-02-18T01:17:12;102037.41;;;6.22;84.82
77725;BME280;66892;53.236;6.550;2023-02-18T01:19:38;102026.03;;;6.23;84.99
77725;BME280;66892;53.236;6.550;2023-02-18T01:22:04;102028.41;;;6.43;84.24
77725;BME280;66892;53.236;6.550;2023-02-18T01:24:31;102034.88;;;6.52;84.19
77725;BME280;66892;53.236;6.550;2023-02-18T01:26:57;102031.69;;;6.62;83.64
77725;BME280;66892;53.236;6.550;2023-02-18T01:29:25;102042.84;;;6.82;82.66
77725;BME280;66892;53.236;6.550;2023-02-18T01:31:51;102040.16;;;6.80;82.78
77725;BME280;66892;53.236;6.550;2023-02-18T01:34:17;102036.00;;;6.87;82.35
77725;BME280;66892;53.236;6.550;2023-02-18T01:36:43;102031.50;;;6.84;82.59
77725;BME280;66892;53.236;6.550;2023-02-18T01:39:09;102020.22;;;6.87;82.85
77725;BME280;66892;53.236;6.550;2023-02-18T01:41:35;102019.25;;;6.85;83.13
77725;BME280;66892;53.236;6.550;2023-02-18T01:44:15;102015.81;;;6.87;83.21
77725;BME280;66892;53.236;6.550;2023-02-18T01:46:43;102015.31;;;6.99;82.67
77725;BME280;66892;53.236;6.550;2023-02-18T01:49:12;102017.22;;;7.05;82.64
77725;BME280;66892;53.236;6.550;2023-02-18T01:51:40;102012.59;;;6.96;83.13
77725;BME280;66892;53.236;6.550;2023-02-18T01:54:10;102015.16;;;6.95;83.52
77725;BME280;66892;53.236;6.550;2023-02-18T01:56:41;102015.91;;;6.90;83.86
77725;BME280;66892;53.236;6.550;2023-02-18T01:59:12;102000.34;;;6.97;83.69
77725;BME280;66892;53.236;6.550;2023-02-18T02:01:41;101992.31;;;6.92;83.86
77725;BME280;66892;53.236;6.550;2023-02-18T02:04:10;101981.88;;;6.95;84.01
77725;BME280;66892;53.236;6.550;2023-02-18T02:06:36;101962.50;;;6.92;84.26
77725;BME280;66892;53.236;6.550;2023-02-18T02:09:05;101952.81;;;6.90;84.53
77725;BME280;66892;53.236;6.550;2023-02-18T02:11:48;101939.97;;;7.01;84.22
77725;BME280;66892;53.236;6.550;2023-02-18T02:14:34;101936.34;;;6.96;84.47
77725;BME280;66892;53.236;6.550;2023-02-18T02:17:06;101931.75;;;6.89;84.69
77725;BME280;66892;53.236;6.550;2023-02-18T02:20:01;101947.28;;;6.81;85.29
77725;BME280;66892;53.236;6.550;2023-02-18T02:25:43;101943.09;;;6.88;85.23
77725;BME280;66892;53.236;6.550;2023-02-18T02:28:54;101918.53;;;6.87;85.48
77725;BME280;66892;53.236;6.550;2023-02-18T02:31:51;101937.91;;;6.89;85.19
77725;BME280;66892;53.236;6.550;2023-02-18T02:34:38;101932.56;;;6.86;85.54
77725;BME280;66892;53.236;6.550;2023-02-18T02:37:13;101929.88;;;6.85;85.75
77725;BME280;66892;53.236;6.550;2023-02-18T02:39:48;101921.16;;;6.86;85.75
77725;BME280;66892;53.236;6.550;2023-02-18T02:42:23;101911.44;;;6.83;85.92
77725;BME280;66892;53.236;6.550;2023-02-18T02:44:54;101913.25;;;6.86;86.02
77725;BME280;66892;53.236;6.550;2023-02-18T02:47:27;101891.28;;;6.84;86.46
77725;BME280;66892;53.236;6.550;2023-02-18T02:50:01;101894.69;;;6.80;86.63
77725;BME280;66892;53.236;6.550;2023-02-18T02:52:31;101875.34;;;6.78;86.62
77725;BME280;66892;53.236;6.550;2023-02-18T02:54:58;101877.03;;;6.76;86.85
77725;BME280;66892;53.236;6.550;2023-02-18T02:57:44;101863.06;;;6.77;86.96
77725;BME280;66892;53.236;6.550;2023-02-18T03:00:12;101871.13;;;6.83;86.73
77725;BME280;66892;53.236;6.550;2023-02-18T03:02:56;101858.88;;;6.85;86.66
77725;BME280;66892;53.236;6.550;2023-02-18T03:05:35;101858.97;;;6.88;86.79
77725;BME280;66892;53.236;6.550;2023-02-18T03:08:08;101848.38;;;6.85;86.98
77725;BME280;66892;53.236;6.550;2023-02-18T03:10:47;101857.97;;;6.83;87.40
77725;BME280;66892;53.236;6.550;2023-02-18T03:13:21;101846.88;;;6.93;87.10
77725;BME280;66892;53.236;6.550;2023-02-18T03:15:55;101834.56;;;6.92;87.26
77725;BME280;66892;53.236;6.550;2023-02-18T03:18:28;101840.72;;;6.94;87.24
77725;BME280;66892;53.236;6.550;2023-02-18T03:21:03;101830.94;;;6.88;87.53
77725;BME280;66892;53.236;6.550;2023-02-18T03:23:34;101822.31;;;6.93;87.64
77725;BME280;66892;53.236;6.550;2023-02-18T03:26:03;101828.63;;;6.99;87.63
77725;BME280;66892;53.236;6.550;2023-02-18T03:28:31;101826.31;;;7.13;87.17
77725;BME280;66892;53.236;6.550;2023-02-18T03:31:01;101823.59;;;7.08;87.22
77725;BME280;66892;53.236;6.550;2023-02-18T03:33:32;101825.41;;;7.11;87.53
77725;BME280;66892;53.236;6.550;2023-02-18T03:36:02;101828.25;;;7.18;87.42
77725;BME280;66892;53.236;6.550;2023-02-18T03:38:31;101825.53;;;7.15;87.61
77725;BME280;66892;53.236;6.550;2023-02-18T03:41:00;101828.19;;;7.15;87.72
77725;BME280;66892;53.236;6.550;2023-02-18T03:43:27;101808.78;;;7.12;87.86
77725;BME280;66892;53.236;6.550;2023-02-18T03:45:53;101814.06;;;7.13;88.08
77725;BME280;66892;53.236;6.550;2023-02-18T03:48:19;101798.28;;;7.12;88.01
77725;BME280;66892;53.236;6.550;2023-02-18T03:50:45;101797.25;;;7.07;88.41
77725;BME280;66892;53.236;6.550;2023-02-18T03:53:13;101782.50;;;7.13;88.21
77725;BME280;66892;53.236;6.550;2023-02-18T03:55:39;101776.34;;;7.11;88.19
77725;BME280;66892;53.236;6.550;2023-02-18T03:58:05;101782.44;;;7.10;88.21
77725;BME280;66892;53.236;6.550;2023-02-18T04:00:31;101775.41;;;7.09;88.49
77725;BME280;66892;53.236;6.550;2023-02-18T04:02:57;101774.63;;;7.13;88.37
77725;BME280;66892;53.236;6.550;2023-02-18T04:05:23;101776.34;;;7.13;88.50
77725;BME280;66892;53.236;6.550;2023-02-18T04:07:49;101773.63;;;7.08;88.90
77725;BME280;66892;53.236;6.550;2023-02-18T04:10:17;101772.66;;;7.05;89.17
77725;BME280;66892;53.236;6.550;2023-02-18T04:12:43;101778.75;;;7.04;89.64
77725;BME280;66892;53.236;6.550;2023-02-18T04:15:09;101775.97;;;6.98;90.06
77725;BME280;66892;53.236;6.550;2023-02-18T04:17:35;101771.59;;;6.98;90.21
77725;BME280;66892;53.236;6.550;2023-02-18T04:20:01;101770.84;;;7.02;90.57
77725;BME280;66892;53.236;6.550;2023-02-18T04:22:29;101768.13;;;6.99;91.40
77725;BME280;66892;53.236;6.550;2023-02-18T04:24:55;101754.75;;;6.90;92.16
77725;BME280;66892;53.236;6.550;2023-02-18T04:27:22;101761.84;;;6.94;92.34
77725;BME280;66892;53.236;6.550;2023-02-18T04:29:48;101753.72;;;6.83;93.05
77725;BME280;66892;53.236;6.550;2023-02-18T04:32:15;101765.09;;;6.84;93.31
77725;BME280;66892;53.236;6.550;2023-02-18T04:34:41;101752.88;;;6.86;93.57
77725;BME280;66892;53.236;6.550;2023-02-18T04:37:07;101742.22;;;6.80;94.37
77725;BME280;66892;53.236;6.550;2023-02-18T04:39:33;101743.81;;;6.75;94.56
77725;BME280;66892;53.236;6.550;2023-02-18T04:41:59;101729.75;;;6.73;94.97
77725;BME280;66892;53.236;6.550;2023-02-18T04:44:27;101733.28;;;6.73;95.08
77725;BME280;66892;53.236;6.550;2023-02-18T04:46:53;101711.31;;;6.71;95.59
77725;BME280;66892;53.236;6.550;2023-02-18T04:49:19;101699.81;;;6.68;95.82
77725;BME280;66892;53.236;6.550;2023-02-18T04:51:45;101708.69;;;6.71;95.71
77725;BME280;66892;53.236;6.550;2023-02-18T04:54:11;101698.09;;;6.68;95.82
77725;BME280;66892;53.236;6.550;2023-02-18T04:56:37;101698.22;;;6.73;96.13
77725;BME280;66892;53.236;6.550;2023-02-18T04:59:03;101687.63;;;6.70;96.08
77725;BME280;66892;53.236;6.550;2023-02-18T05:01:30;101671.94;;;6.73;96.20
77725;BME280;66892;53.236;6.550;2023-02-18T05:03:56;101657.06;;;6.75;96.51
77725;BME280;66892;53.236;6.550;2023-02-18T05:06:23;101646.63;;;6.76;96.61
77725;BME280;66892;53.236;6.550;2023-02-18T05:08:49;101631.75;;;6.77;96.91
77725;BME280;66892;53.236;6.550;2023-02-18T05:11:15;101617.84;;;6.82;96.98
77725;BME280;66892;53.236;6.550;2023-02-18T05:13:41;101596.81;;;6.82;96.88
77725;BME280;66892;53.236;6.550;2023-02-18T05:16:07;101581.06;;;6.82;97.08
77725;BME280;66892;53.236;6.550;2023-02-18T05:18:34;101579.41;;;6.87;97.06
77725;BME280;66892;53.236;6.550;2023-02-18T05:21:00;101576.75;;;6.86;97.15
77725;BME280;66892;53.236;6.550;2023-02-18T05:23:26;101569.97;;;6.96;97.53
77725;BME280;66892;53.236;6.550;2023-02-18T05:25:53;101551.69;;;7.02;97.70
77725;BME280;66892;53.236;6.550;2023-02-18T05:28:19;101543.94;;;7.06;97.82
77725;BME280;66892;53.236;6.550;2023-02-18T05:30:45;101549.25;;;7.11;98.08
77725;BME280;66892;53.236;6.550;2023-02-18T05:33:11;101551.19;;;7.18;97.83
77725;BME280;66892;53.236;6.550;2023-02-18T05:35:38;101553.91;;;7.22;97.87
77725;BME280;66892;53.236;6.550;2023-02-18T05:38:05;101550.41;;;7.22;97.83
77725;BME280;66892;53.236;6.550;2023-02-18T05:40:31;101535.56;;;7.25;97.94
77725;BME280;66892;53.236;6.550;2023-02-18T05:42:57;101532.91;;;7.24;97.93
77725;BME280;66892;53.236;6.550;2023-02-18T05:45:23;101533.13;;;7.34;98.02
77725;BME280;66892;53.236;6.550;2023-02-18T05:47:49;101521.00;;;7.42;97.82
77725;BME280;66892;53.236;6.550;2023-02-18T05:50:15;101521.88;;;7.41;98.12
77725;BME280;66892;53.236;6.550;2023-02-18T05:52:42;101523.75;;;7.47;98.03
77725;BME280;66892;53.236;6.550;2023-02-18T05:55:08;101520.22;;;7.48;97.95
77725;BME280;66892;53.236;6.550;2023-02-18T05:57:35;101516.75;;;7.49;98.23
77725;BME280;66892;53.236;6.550;2023-02-18T06:00:01;101512.34;;;7.48;98.04
77725;BME280;66892;53.236;6.550;2023-02-18T06:02:27;101508.06;;;7.53;98.31
77725;BME280;66892;53.236;6.550;2023-02-18T06:04:53;101509.25;;;7.69;98.04
77725;BME280;66892;53.236;6.550;2023-02-18T06:07:19;101494.50;;;7.78;97.82
77725;BME280;66892;53.236;6.550;2023-02-18T06:09:46;101500.63;;;7.77;97.92
77725;BME280;66892;53.236;6.550;2023-02-18T06:12:13;101500.50;;;7.70;97.85
77725;BME280;66892;53.236;6.550;2023-02-18T06:14:39;101496.25;;;7.78;98.40
77725;BME280;66892;53.236;6.550;2023-02-18T06:17:08;101494.56;;;7.81;98.20
77725;BME280;66892;53.236;6.550;2023-02-18T06:19:34;101495.59;;;7.89;98.44
77725;BME280;66892;53.236;6.550;2023-02-18T06:22:00;101481.66;;;7.96;98.16
77725;BME280;66892;53.236;6.550;2023-02-18T06:24:26;101472.91;;;7.97;98.29
77725;BME280;66892;53.236;6.550;2023-02-18T06:26:53;101471.16;;;8.00;97.99
77725;BME280;66892;53.236;6.550;2023-02-18T06:29:19;101464.16;;;8.00;98.30
77725;BME280;66892;53.236;6.550;2023-02-18T06:31:45;101471.31;;;8.06;98.55
77725;BME280;66892;53.236;6.550;2023-02-18T06:34:11;101460.94;;;8.16;98.60
77725;BME280;66892;53.236;6.550;2023-02-18T06:36:37;101468.91;;;8.21;98.01
77725;BME280;66892;53.236;6.550;2023-02-18T06:39:04;101464.63;;;8.27;98.15
77725;BME280;66892;53.236;6.550;2023-02-18T06:41:31;101465.66;;;8.34;98.06
77725;BME280;66892;53.236;6.550;2023-02-18T06:43:58;101457.84;;;8.40;97.66
77725;BME280;66892;53.236;6.550;2023-02-18T06:46:24;101456.09;;;8.42;98.01
77725;BME280;66892;53.236;6.550;2023-02-18T06:48:50;101447.38;;;8.46;97.89
77725;BME280;66892;53.236;6.550;2023-02-18T06:51:17;101451.81;;;8.48;98.04
77725;BME280;66892;53.236;6.550;2023-02-18T06:53:44;101442.16;;;8.49;97.96
77725;BME280;66892;53.236;6.550;2023-02-18T06:56:11;101442.19;;;8.51;98.15
77725;BME280;66892;53.236;6.550;2023-02-18T06:58:37;101443.13;;;8.56;98.37
77725;BME280;66892;53.236;6.550;2023-02-18T07:01:05;101433.59;;;8.65;97.69
77725;BME280;66892;53.236;6.550;2023-02-18T07:03:31;101419.44;;;8.59;98.14
77725;BME280;66892;53.236;6.550;2023-02-18T07:05:57;101421.31;;;8.67;97.97
77725;BME280;66892;53.236;6.550;2023-02-18T07:08:23;101419.53;;;8.63;98.27
77725;BME280;66892;53.236;6.550;2023-02-18T07:10:49;101411.69;;;8.71;97.82
77725;BME280;66892;53.236;6.550;2023-02-18T07:13:15;101413.53;;;8.75;97.97
77725;BME280;66892;53.236;6.550;2023-02-18T07:15:42;101414.34;;;8.69;98.08
77725;BME280;66892;53.236;6.550;2023-02-18T07:18:09;101411.84;;;8.81;98.10
77725;BME280;66892;53.236;6.550;2023-02-18T07:20:35;101407.56;;;8.91;97.69
77725;BME280;66892;53.236;6.550;2023-02-18T07:23:01;101404.94;;;8.91;97.72
77725;BME280;66892;53.236;6.550;2023-02-18T07:25:27;101403.19;;;8.91;97.71
77725;BME280;66892;53.236;6.550;2023-02-18T07:27:53;101401.56;;;9.01;97.61
77725;BME280;66892;53.236;6.550;2023-02-18T07:30:20;101400.72;;;9.05;97.30
77725;BME280;66892;53.236;6.550;2023-02-18T07:32:46;101386.66;;;9.06;97.04
77725;BME280;66892;53.236;6.550;2023-02-18T07:35:15;101385.75;;;9.04;97.23
77725;BME280;66892;53.236;6.550;2023-02-18T07:37:43;101386.69;;;9.09;96.88
77725;BME280;66892;53.236;6.550;2023-02-18T07:40:11;101393.75;;;9.10;97.27
77725;BME280;66892;53.236;6.550;2023-02-18T07:42:38;101400.72;;;9.05;96.97
77725;BME280;66892;53.236;6.550;2023-02-18T07:45:04;101400.75;;;9.08;96.80
77725;BME280;66892;53.236;6.550;2023-02-18T07:47:31;101399.88;;;9.09;96.45
77725;BME280;66892;53.236;6.550;2023-02-18T07:49:57;101401.72;;;9.15;96.45
77725;BME280;66892;53.236;6.550;2023-02-18T07:52:24;101396.53;;;9.25;95.53
77725;BME280;66892;53.236;6.550;2023-02-18T07:54:50;101391.19;;;9.19;96.55
77725;BME280;66892;53.236;6.550;2023-02-18T07:57:16;101381.56;;;9.23;96.31
77725;BME280;66892;53.236;6.550;2023-02-18T07:59:42;101372.72;;;9.19;95.99
77725;BME280;66892;53.236;6.550;2023-02-18T08:02:14;101377.97;;;9.15;96.25
77725;BME280;66892;53.236;6.550;2023-02-18T08:04:42;101383.22;;;9.13;96.75
77725;BME280;66892;53.236;6.550;2023-02-18T08:07:11;101378.81;;;9.15;96.17
77725;BME280;66892;53.236;6.550;2023-02-18T08:09:39;101382.31;;;9.13;96.08
77725;BME280;66892;53.236;6.550;2023-02-18T08:12:06;101387.59;;;9.11;96.11
77725;BME280;66892;53.236;6.550;2023-02-18T08:14:32;101381.44;;;9.12;95.35
77725;BME280;66892;53.236;6.550;2023-02-18T08:16:58;101385.84;;;9.12;95.24
77725;BME280;66892;53.236;6.550;2023-02-18T08:19:25;101365.59;;;9.12;95.46
77725;BME280;66892;53.236;6.550;2023-02-18T08:21:51;101375.22;;;9.09;95.09
77725;BME280;66892;53.236;6.550;2023-02-18T08:24:17;101379.63;;;9.05;95.73
77725;BME280;66892;53.236;6.550;2023-02-18T08:26:45;101396.31;;;9.04;95.39
77725;BME280;66892;53.236;6.550;2023-02-18T08:29:11;101399.84;;;9.05;94.66
77725;BME280;66892;53.236;6.550;2023-02-18T08:31:37;101374.31;;;9.04;94.79
77725;BME280;66892;53.236;6.550;2023-02-18T08:34:03;101376.88;;;8.97;95.37
77725;BME280;66892;53.236;6.550;2023-02-18T08:36:29;101390.94;;;8.95;95.08
77725;BME280;66892;53.236;6.550;2023-02-18T08:38:56;101395.31;;;8.94;95.00
77725;BME280;66892;53.236;6.550;2023-02-18T08:41:22;101410.25;;;8.94;94.93
77725;BME280;66892;53.236;6.550;2023-02-18T08:43:50;101390.00;;;8.93;95.01
77725;BME280;66892;53.236;6.550;2023-02-18T08:46:16;101392.66;;;8.91;95.03
77725;BME280;66892;53.236;6.550;2023-02-18T08:48:42;101391.69;;;8.86;95.54
77725;BME280;66892;53.236;6.550;2023-02-18T08:51:13;101377.63;;;8.86;95.47
77725;BME280;66892;53.236;6.550;2023-02-18T08:53:40;101382.91;;;8.86;94.96
77725;BME280;66892;53.236;6.550;2023-02-18T08:56:07;101385.50;;;8.83;95.44
77725;BME280;66892;53.236;6.550;2023-02-18T08:58:33;101379.38;;;8.85;95.60
77725;BME280;66892;53.236;6.550;2023-02-18T09:01:04;101387.25;;;8.82;95.57
77725;BME280;66892;53.236;6.550;2023-02-18T09:03:30;101374.94;;;8.81;95.98
77725;BME280;66892;53.236;6.550;2023-02-18T09:05:58;101389.88;;;8.81;96.20
77725;BME280;66892;53.236;6.550;2023-02-18T09:08:25;101385.44;;;8.80;96.33
77725;BME280;66892;53.236;6.550;2023-02-18T09:10:54;101401.25;;;8.80;96.62
77725;BME280;66892;53.236;6.550;2023-02-18T09:13:20;101391.59;;;8.79;96.58
77725;BME280;66892;53.236;6.550;2023-02-18T09:15:55;101393.34;;;8.80;96.37
77725;BME280;66892;53.236;6.550;2023-02-18T09:18:22;101360.84;;;8.79;96.31
77725;BME280;66892;53.236;6.550;2023-02-18T09:20:48;101372.31;;;8.83;95.94
77725;BME280;66892;53.236;6.550;2023-02-18T09:23:14;101383.69;;;8.80;96.17
77725;BME280;66892;53.236;6.550;2023-02-18T09:25:41;101388.97;;;8.80;96.26
77725;BME280;66892;53.236;6.550;2023-02-18T09:28:07;101410.91;;;8.78;96.72
77725;BME280;66892;53.236;6.550;2023-02-18T09:30:33;101396.88;;;8.80;96.63
77725;BME280;66892;53.236;6.550;2023-02-18T09:32:59;101382.00;;;8.82;96.38
77725;BME280;66892;53.236;6.550;2023-02-18T09:35:26;101389.88;;;8.81;96.32
77725;BME280;66892;53.236;6.550;2023-02-18T09:37:52;101396.94;;;8.85;96.27
77725;BME280;66892;53.236;6.550;2023-02-18T09:40:23;101400.53;;;8.88;96.17
77725;BME280;66892;53.236;6.550;2023-02-18T09:42:50;101396.06;;;8.84;96.14
77725;BME280;66892;53.236;6.550;2023-02-18T09:45:17;101392.59;;;8.88;96.30
77725;BME280;66892;53.236;6.550;2023-02-18T09:47:43;101397.88;;;8.90;96.48
77725;BME280;66892;53.236;6.550;2023-02-18T09:50:15;101405.78;;;8.88;96.71
77725;BME280;66892;53.236;6.550;2023-02-18T09:52:45;101402.25;;;8.89;96.45
77725;BME280;66892;53.236;6.550;2023-02-18T09:55:18;101403.19;;;8.93;96.52
77725;BME280;66892;53.236;6.550;2023-02-18T09:57:46;101406.72;;;8.93;96.09
77725;BME280;66892;53.236;6.550;2023-02-18T10:00:16;101398.00;;;8.99;96.13
77725;BME280;66892;53.236;6.550;2023-02-18T10:02:54;101398.13;;;9.08;95.51
77725;BME280;66892;53.236;6.550;2023-02-18T10:05:22;101409.50;;;9.06;95.34
77725;BME280;66892;53.236;6.550;2023-02-18T10:07:52;101412.16;;;9.09;94.83
77725;BME280;66892;53.236;6.550;2023-02-18T10:10:22;101398.16;;;9.11;95.21
77725;BME280;66892;53.236;6.550;2023-02-18T10:12:51;101388.53;;;9.15;93.59
77725;BME280;66892;53.236;6.550;2023-02-18T10:15:22;101392.91;;;9.16;93.40
77725;BME280;66892;53.236;6.550;2023-02-18T10:17:50;101396.47;;;9.18;93.72
77725;BME280;66892;53.236;6.550;2023-02-18T10:20:19;101403.59;;;9.26;92.65
77725;BME280;66892;53.236;6.550;2023-02-18T10:22:49;101397.53;;;9.33;91.79
77725;BME280;66892;53.236;6.550;2023-02-18T10:25:20;101399.25;;;9.34;91.89
77725;BME280;66892;53.236;6.550;2023-02-18T10:27:48;101401.94;;;9.36;91.66
77725;BME280;66892;53.236;6.550;2023-02-18T10:30:20;101403.69;;;9.34;92.18
77725;BME280;66892;53.236;6.550;2023-02-18T10:32:46;101401.06;;;9.38;91.84
77725;BME280;66892;53.236;6.550;2023-02-18T10:35:17;101406.38;;;9.41;91.05
77725;BME280;66892;53.236;6.550;2023-02-18T10:37:56;101402.16;;;9.56;90.35
77725;BME280;66892;53.236;6.550;2023-02-18T10:40:29;101415.31;;;9.54;90.71
77725;BME280;66892;53.236;6.550;2023-02-18T10:43:08;101407.44;;;9.56;90.22
77725;BME280;66892;53.236;6.550;2023-02-18T10:45:41;101407.41;;;9.57;89.98
77725;BME280;66892;53.236;6.550;2023-02-18T10:48:27;101418.13;;;9.69;89.67
77725;BME280;66892;53.236;6.550;2023-02-18T10:50:58;101409.38;;;9.75;89.42
77725;BME280;66892;53.236;6.550;2023-02-18T10:53:32;101438.41;;;9.76;89.07
77725;BME280;66892;53.236;6.550;2023-02-18T10:55:58;101419.19;;;9.91;87.63
77725;BME280;66892;53.236;6.550;2023-02-18T10:58:30;101427.16;;;9.97;88.13
77725;BME280;66892;53.236;6.550;2023-02-18T11:00:57;101440.31;;;9.89;88.36
77725;BME280;66892;53.236;6.550;2023-02-18T11:03:24;101421.84;;;9.92;89.19
77725;BME280;66892;53.236;6.550;2023-02-18T11:05:54;101436.78;;;9.89;88.99
77725;BME280;66892;53.236;6.550;2023-02-18T11:08:21;101431.59;;;9.99;88.19
77725;BME280;66892;53.236;6.550;2023-02-18T11:10:50;101445.72;;;10.03;88.04
77725;BME280;66892;53.236;6.550;2023-02-18T11:13:23;101453.66;;;10.04;88.11
77725;BME280;66892;53.236;6.550;2023-02-18T11:15:58;101452.78;;;10.05;88.15
77725;BME280;66892;53.236;6.550;2023-02-18T11:18:34;101447.50;;;10.07;88.13
77725;BME280;66892;53.236;6.550;2023-02-18T11:21:03;101460.69;;;10.05;88.92
77725;BME280;66892;53.236;6.550;2023-02-18T11:23:30;101445.75;;;10.07;88.37
77725;BME280;66892;53.236;6.550;2023-02-18T11:26:02;101457.31;;;10.16;87.07
77725;BME280;66892;53.236;6.550;2023-02-18T11:28:41;101458.09;;;10.10;88.48
77725;BME280;66892;53.236;6.550;2023-02-18T11:31:14;101469.66;;;10.21;87.42
77725;BME280;66892;53.236;6.550;2023-02-18T11:33:43;101471.47;;;10.21;87.92
77725;BME280;66892;53.236;6.550;2023-02-18T11:36:21;101466.16;;;10.19;88.15
77725;BME280;66892;53.236;6.550;2023-02-18T11:38:50;101471.44;;;10.18;88.02
77725;BME280;66892;53.236;6.550;2023-02-18T11:41:20;101481.19;;;10.28;87.00
77725;BME280;66892;53.236;6.550;2023-02-18T11:43:49;101468.03;;;10.35;86.30
77725;BME280;66892;53.236;6.550;2023-02-18T11:46:17;101466.31;;;10.39;87.54
77725;BME280;66892;53.236;6.550;2023-02-18T11:48:45;101468.97;;;10.42;86.79
77725;BME280;66892;53.236;6.550;2023-02-18T11:51:16;101468.09;;;10.40;86.40
77725;BME280;66892;53.236;6.550;2023-02-18T11:54:00;101475.06;;;10.35;85.96
77725;BME280;66892;53.236;6.550;2023-02-18T11:56:30;101474.22;;;10.36;86.15
77725;BME280;66892;53.236;6.550;2023-02-18T11:58:57;101480.34;;;10.35;86.36
77725;BME280;66892;53.236;6.550;2023-02-18T12:01:30;101482.22;;;10.43;85.90
77725;BME280;66892;53.236;6.550;2023-02-18T12:03:59;101501.56;;;10.41;85.54
77725;BME280;66892;53.236;6.550;2023-02-18T12:06:32;101485.69;;;10.41;85.54
77725;BME280;66892;53.236;6.550;2023-02-18T12:09:04;101481.31;;;10.44;85.77
77725;BME280;66892;53.236;6.550;2023-02-18T12:11:34;101502.44;;;10.40;86.00
77725;BME280;66892;53.236;6.550;2023-02-18T12:14:02;101487.44;;;10.40;85.39
77725;BME280;66892;53.236;6.550;2023-02-18T12:16:34;101495.38;;;10.40;85.27
77725;BME280;66892;53.236;6.550;2023-02-18T12:19:16;101480.41;;;10.41;85.43
77725;BME280;66892;53.236;6.550;2023-02-18T12:21:52;101497.25;;;10.53;84.86
77725;BME280;66892;53.236;6.550;2023-02-18T12:24:32;101502.56;;;10.55;85.23
77725;BME280;66892;53.236;6.550;2023-02-18T12:27:11;101497.34;;;10.67;84.64
77725;BME280;66892;53.236;6.550;2023-02-18T12:29:58;101494.78;;;10.82;83.64
77725;BME280;66892;53.236;6.550;2023-02-18T12:32:35;101499.25;;;10.85;83.56
77725;BME280;66892;53.236;6.550;2023-02-18T12:38:09;101501.97;;;11.04;82.94
77725;BME280;66892;53.236;6.550;2023-02-18T12:40:55;101508.09;;;10.96;82.13
77725;BME280;66892;53.236;6.550;2023-02-18T12:43:38;101518.75;;;11.03;81.86
77725;BME280;66892;53.236;6.550;2023-02-18T12:46:22;101516.16;;;11.13;82.01
77725;BME280;66892;53.236;6.550;2023-02-18T12:49:02;101517.84;;;11.00;81.70
77725;BME280;66892;53.236;6.550;2023-02-18T12:51:34;101517.78;;;10.89;83.44
77725;BME280;66892;53.236;6.550;2023-02-18T12:57:11;101517.03;;;11.13;82.13
77725;BME280;66892;53.236;6.550;2023-02-18T13:00:00;101524.03;;;11.00;82.03
77725;BME280;66892;53.236;6.550;2023-02-18T13:02:42;101536.34;;;10.97;81.50
77725;BME280;66892;53.236;6.550;2023-02-18T13:05:27;101533.72;;;10.97;81.01
77725;BME280;66892;53.236;6.550;2023-02-18T13:08:05;101538.06;;;10.92;83.10
77725;BME280;66892;53.236;6.550;2023-02-18T13:10:50;101538.13;;;10.98;82.56
77725;BME280;66892;53.236;6.550;2023-02-18T13:13:23;101545.16;;;10.91;82.17
77725;BME280;66892;53.236;6.550;2023-02-18T13:15:54;101534.50;;;10.85;82.45
77725;BME280;66892;53.236;6.550;2023-02-18T13:18:25;101551.28;;;10.89;82.37